sensor_id;sensor_type;location;lat;lon;timestamp;pressure;altitude;pressure_sealevel;temperature;humidity
11314;BME280;5712;48.858;9.206;2023-03-14T00:00:47;96525.31;;;9.46;100.00
11314;BME280;5712;48.858;9.206;2023-03-14T00:03:13;96511.88;;;9.49;100.00
11314;BME280;5712;48.858;9.206;2023-03-14T00:05:40;96535.06;;;9.45;100.00
11314;BME280;5712;48.858;9.206;2023-03-14T00:08:06;96505.91;;;9.47;100.00
11314;BME280;5712;48.858;9.206;2023-03-14T00:10:36;96529.78;;;9.45;100.00
11314;BME280;5712;48.858;9.206;2023-03-14T00:13:02;96547.13;;;9.48;100.00
11314;BME280;5712;48.858;9.206;2023-03-14T00:15:29;96523.13;;;9.51;100.00
11314;BME280;5712;48.858;9.206;2023-03-14T00:17:56;96513.41;;;9.51;100.00
11314;BME280;5712;48.858;9.206;2023-03-14T00:20:22;96513.97;;;9.55;100.00
11314;BME280;5712;48.858;9.206;2023-03-14T00:22:49;96514.09;;;9.53;100.00
11314;BME280;5712;48.858;9.206;2023-03-14T00:25:15;96518.81;;;9.50;100.00
11314;BME280;5712;48.858;9.206;2023-03-14T00:27:43;96505.63;;;9.50;100.00
11314;BME280;5712;48.858;9.206;2023-03-14T00:30:11;96511.03;;;9.48;100.00
11314;BME280;5712;48.858;9.206;2023-03-14T00:32:38;96502.88;;;9.42;100.00
11314;BME280;5712;48.858;9.206;2023-03-14T00:35:05;96519.06;;;9.37;100.00
11314;BME280;5712;48.858;9.206;2023-03-14T00:37:32;96522.13;;;9.33;100.00
11314;BME280;5712;48.858;9.206;2023-03-14T00:39:58;96524.09;;;9.40;100.00
11314;BME280;5712;48.858;9.206;2023-03-14T00:42:24;96524.50;;;9.45;100.00
11314;BME280;5712;48.858;9.206;2023-03-14T00:44:52;96528.69;;;9.48;100.00
11314;BME280;5712;48.858;9.206;2023-03-14T00:47:19;96527.00;;;9.47;100.00
11314;BME280;5712;48.858;9.206;2023-03-14T00:49:45;96526.03;;;9.48;100.00
11314;BME280;5712;48.858;9.206;2023-03-14T00:52:12;96522.56;;;9.47;100.00
11314;BME280;5712;48.858;9.206;2023-03-14T00:54:38;96523.66;;;9.45;100.00
11314;BME280;5712;48.858;9.206;2023-03-14T00:57:05;96538.13;;;9.50;100.00
11314;BME280;5712;48.858;9.206;2023-03-14T00:59:31;96537.41;;;9.48;100.00
11314;BME280;5712;48.858;9.206;2023-03-14T01:01:59;96533.09;;;9.47;100.00
11314;BME280;5712;48.858;9.206;2023-03-14T01:04:25;96539.78;;;9.42;100.00
11314;BME280;5712;48.858;9.206;2023-03-14T01:06:52;96533.94;;;9.38;100.00
11314;BME280;5712;48.858;9.206;2023-03-14T01:09:18;96551.56;;;9.38;100.00
11314;BME280;5712;48.858;9.206;2023-03-14T01:11:45;96552.41;;;9.38;100.00
11314;BME280;5712;48.858;9.206;2023-03-14T01:14:12;96554.50;;;9.44;100.00
11314;BME280;5712;48.858;9.206;2023-03-14T01:16:38;96556.16;;;9.45;100.00
11314;BME280;5712;48.858;9.206;2023-03-14T01:19:07;96539.22;;;9.48;100.00
11314;BME280;5712;48.858;9.206;2023-03-14T01:21:34;96526.31;;;9.45;100.00
11314;BME280;5712;48.858;9.206;2023-03-14T01:24:02;96525.75;;;9.51;100.00
11314;BME280;5712;48.858;9.206;2023-03-14T01:26:31;96525.63;;;9.52;100.00
11314;BME280;5712;48.858;9.206;2023-03-14T01:28:59;96524.09;;;9.50;100.00
11314;BME280;5712;48.858;9.206;2023-03-14T01:31:26;96507.03;;;9.54;100.00
11314;BME280;5712;48.858;9.206;2023-03-14T01:33:54;96481.47;;;9.54;100.00
11314;BME280;5712;48.858;9.206;2023-03-14T01:36:21;96479.69;;;9.55;100.00
11314;BME280;5712;48.858;9.206;2023-03-14T01:38:48;96478.16;;;9.52;100.00
11314;BME280;5712;48.858;9.206;2023-03-14T01:41:17;96472.19;;;9.50;100.00
11314;BME280;5712;48.858;9.206;2023-03-14T01:43:44;96463.44;;;9.50;100.00
11314;BME280;5712;48.858;9.206;2023-03-14T01:46:24;96446.38;;;9.54;100.00
11314;BME280;5712;48.858;9.206;2023-03-14T01:48:55;96441.50;;;9.49;100.00
11314;BME280;5712;48.858;9.206;2023-03-14T01:51:28;96428.75;;;9.45;100.00
11314;BME280;5712;48.858;9.206;2023-03-14T01:54:00;96425.00;;;9.38;100.00
11314;BME280;5712;48.858;9.206;2023-03-14T01:56:30;96434.59;;;9.39;100.00
11314;BME280;5712;48.858;9.206;2023-03-14T01:58:57;96437.78;;;9.33;100.00
11314;BME280;5712;48.858;9.206;2023-03-14T02:01:26;96445.13;;;9.39;100.00
11314;BME280;5712;48.858;9.206;2023-03-14T02:03:55;96426.66;;;9.39;100.00
11314;BME280;5712;48.858;9.206;2023-03-14T02:06:26;96424.88;;;9.39;100.00
11314;BME280;5712;48.858;9.206;2023-03-14T02:08:55;96430.69;;;9.43;100.00
11314;BME280;5712;48.858;9.206;2023-03-14T02:11:21;96430.97;;;9.40;100.00
11314;BME280;5712;48.858;9.206;2023-03-14T02:13:53;96438.19;;;9.38;100.00
11314;BME280;5712;48.858;9.206;2023-03-14T02:16:19;96425.28;;;9.35;100.00
11314;BME280;5712;48.858;9.206;2023-03-14T02:18:46;96426.53;;;9.31;100.00
11314;BME280;5712;48.858;9.206;2023-03-14T02:21:18;96422.38;;;9.38;100.00
11314;BME280;5712;48.858;9.206;2023-03-14T02:23:54;96416.13;;;9.29;100.00
11314;BME280;5712;48.858;9.206;2023-03-14T02:26:26;96412.81;;;9.27;100.00
11314;BME280;5712;48.858;9.206;2023-03-14T02:28:55;96418.91;;;9.28;100.00
11314;BME280;5712;48.858;9.206;2023-03-14T02:31:22;96393.81;;;9.33;100.00
11314;BME280;5712;48.858;9.206;2023-03-14T02:33:49;96390.75;;;9.38;100.00
11314;BME280;5712;48.858;9.206;2023-03-14T02:36:17;96398.91;;;9.35;100.00
11314;BME280;5712;48.858;9.206;2023-03-14T02:38:49;96410.44;;;9.34;100.00
11314;BME280;5712;48.858;9.206;2023-03-14T02:41:17;96399.34;;;9.30;100.00
11314;BME280;5712;48.858;9.206;2023-03-14T02:43:44;96408.53;;;9.26;100.00
11314;BME280;5712;48.858;9.206;2023-03-14T02:46:13;96414.06;;;9.23;100.00
11314;BME280;5712;48.858;9.206;2023-03-14T02:48:43;96423.06;;;9.21;100.00
11314;BME280;5712;48.858;9.206;2023-03-14T02:51:13;96405.72;;;9.18;100.00
11314;BME280;5712;48.858;9.206;2023-03-14T02:53:41;96403.94;;;9.19;100.00
11314;BME280;5712;48.858;9.206;2023-03-14T02:56:08;96411.84;;;9.19;100.00
11314;BME280;5712;48.858;9.206;2023-03-14T02:58:35;96384.09;;;9.15;100.00
11314;BME280;5712;48.858;9.206;2023-03-14T03:01:02;96382.44;;;9.14;100.00
11314;BME280;5712;48.858;9.206;2023-03-14T03:03:30;96374.09;;;9.18;100.00
11314;BME280;5712;48.858;9.206;2023-03-14T03:05:57;96365.81;;;9.23;100.00
11314;BME280;5712;48.858;9.206;2023-03-14T03:08:25;96355.94;;;9.25;100.00
11314;BME280;5712;48.858;9.206;2023-03-14T03:10:52;96353.00;;;9.28;100.00
11314;BME280;5712;48.858;9.206;2023-03-14T03:13:19;96360.22;;;9.26;100.00
11314;BME280;5712;48.858;9.206;2023-03-14T03:15:46;96354.97;;;9.26;100.00
11314;BME280;5712;48.858;9.206;2023-03-14T03:18:12;96345.28;;;9.17;100.00
11314;BME280;5712;48.858;9.206;2023-03-14T03:20:40;96338.31;;;9.16;100.00
11314;BME280;5712;48.858;9.206;2023-03-14T03:23:07;96336.09;;;9.21;100.00
11314;BME280;5712;48.858;9.206;2023-03-14T03:25:33;96332.78;;;9.19;100.00
11314;BME280;5712;48.858;9.206;2023-03-14T03:28:01;96335.69;;;9.16;100.00
11314;BME280;5712;48.858;9.206;2023-03-14T03:30:32;96336.38;;;9.27;100.00
11314;BME280;5712;48.858;9.206;2023-03-14T03:32:59;96332.78;;;9.19;100.00
11314;BME280;5712;48.858;9.206;2023-03-14T03:35:25;96330.16;;;9.19;100.00
11314;BME280;5712;48.858;9.206;2023-03-14T03:37:53;96326.25;;;9.13;100.00
11314;BME280;5712;48.858;9.206;2023-03-14T03:40:19;96317.78;;;9.10;100.00
11314;BME280;5712;48.858;9.206;2023-03-14T03:42:46;96307.56;;;9.07;100.00
11314;BME280;5712;48.858;9.206;2023-03-14T03:45:12;96303.69;;;9.11;100.00
11314;BME280;5712;48.858;9.206;2023-03-14T03:47:39;96296.72;;;9.10;100.00
11314;BME280;5712;48.858;9.206;2023-03-14T03:50:06;96298.69;;;9.08;100.00
11314;BME280;5712;48.858;9.206;2023-03-14T03:52:33;96311.00;;;8.98;100.00
11314;BME280;5712;48.858;9.206;2023-03-14T03:55:00;96311.44;;;8.93;100.00
11314;BME280;5712;48.858;9.206;2023-03-14T03:57:30;96317.13;;;8.89;100.00
11314;BME280;5712;48.858;9.206;2023-03-14T04:00:06;96316.16;;;8.90;100.00
11314;BME280;5712;48.858;9.206;2023-03-14T04:02:34;96322.81;;;8.94;100.00
11314;BME280;5712;48.858;9.206;2023-03-14T04:05:00;96309.66;;;8.84;100.00
11314;BME280;5712;48.858;9.206;2023-03-14T04:07:27;96304.22;;;8.86;100.00
11314;BME280;5712;48.858;9.206;2023-03-14T04:09:53;96318.13;;;8.88;100.00
11314;BME280;5712;48.858;9.206;2023-03-14T04:12:21;96304.78;;;8.80;100.00
11314;BME280;5712;48.858;9.206;2023-03-14T04:14:48;96297.31;;;8.85;100.00
11314;BME280;5712;48.858;9.206;2023-03-14T04:17:14;96301.75;;;8.84;100.00
11314;BME280;5712;48.858;9.206;2023-03-14T04:19:40;96303.13;;;8.79;100.00
11314;BME280;5712;48.858;9.206;2023-03-14T04:22:07;96301.34;;;8.79;100.00
11314;BME280;5712;48.858;9.206;2023-03-14T04:24:33;96299.25;;;8.73;100.00
11314;BME280;5712;48.858;9.206;2023-03-14T04:27:00;96307.03;;;8.75;100.00
11314;BME280;5712;48.858;9.206;2023-03-14T04:29:28;96303.69;;;8.73;100.00
11314;BME280;5712;48.858;9.206;2023-03-14T04:31:54;96305.50;;;8.72;100.00
11314;BME280;5712;48.858;9.206;2023-03-14T04:34:21;96304.78;;;8.80;100.00
11314;BME280;5712;48.858;9.206;2023-03-14T04:36:47;96305.63;;;8.71;100.00
11314;BME280;5712;48.858;9.206;2023-03-14T04:39:14;96301.59;;;8.76;100.00
11314;BME280;5712;48.858;9.206;2023-03-14T04:41:40;96292.47;;;8.71;100.00
11314;BME280;5712;48.858;9.206;2023-03-14T04:44:07;96289.28;;;8.67;100.00
11314;BME280;5712;48.858;9.206;2023-03-14T04:46:34;96290.69;;;8.62;100.00
11314;BME280;5712;48.858;9.206;2023-03-14T04:49:01;96280.41;;;8.59;100.00
11314;BME280;5712;48.858;9.206;2023-03-14T04:51:27;96280.53;;;8.57;100.00
11314;BME280;5712;48.858;9.206;2023-03-14T04:53:54;96270.72;;;8.59;100.00
11314;BME280;5712;48.858;9.206;2023-03-14T04:56:23;96275.84;;;8.61;100.00
11314;BME280;5712;48.858;9.206;2023-03-14T04:58:49;96269.88;;;8.59;100.00
11314;BME280;5712;48.858;9.206;2023-03-14T05:01:16;96270.44;;;8.53;100.00
11314;BME280;5712;48.858;9.206;2023-03-14T05:03:44;96269.88;;;8.49;100.00
11314;BME280;5712;48.858;9.206;2023-03-14T05:06:10;96266.97;;;8.52;100.00
11314;BME280;5712;48.858;9.206;2023-03-14T05:08:37;96257.28;;;8.53;100.00
11314;BME280;5712;48.858;9.206;2023-03-14T05:11:04;96261.56;;;8.54;100.00
11314;BME280;5712;48.858;9.206;2023-03-14T05:13:30;96258.50;;;8.49;100.00
11314;BME280;5712;48.858;9.206;2023-03-14T05:16:03;96250.22;;;8.44;100.00
11314;BME280;5712;48.858;9.206;2023-03-14T05:18:30;96248.81;;;8.40;100.00
11314;BME280;5712;48.858;9.206;2023-03-14T05:20:58;96254.34;;;8.37;100.00
11314;BME280;5712;48.858;9.206;2023-03-14T05:23:25;96247.97;;;8.30;100.00
11314;BME280;5712;48.858;9.206;2023-03-14T05:25:51;96249.63;;;8.21;100.00
11314;BME280;5712;48.858;9.206;2023-03-14T05:28:18;96257.69;;;8.20;100.00
11314;BME280;5712;48.858;9.206;2023-03-14T05:30:44;96251.88;;;8.26;100.00
11314;BME280;5712;48.858;9.206;2023-03-14T05:33:11;96243.28;;;8.24;100.00
11314;BME280;5712;48.858;9.206;2023-03-14T05:35:37;96242.13;;;8.17;100.00
11314;BME280;5712;48.858;9.206;2023-03-14T05:38:05;96228.59;;;8.21;100.00
11314;BME280;5712;48.858;9.206;2023-03-14T05:40:35;96228.00;;;8.18;100.00
11314;BME280;5712;48.858;9.206;2023-03-14T05:43:01;96221.53;;;8.22;100.00
11314;BME280;5712;48.858;9.206;2023-03-14T05:45:28;96211.97;;;8.21;100.00
11314;BME280;5712;48.858;9.206;2023-03-14T05:47:54;96226.13;;;8.20;100.00
11314;BME280;5712;48.858;9.206;2023-03-14T05:50:21;96224.16;;;8.22;100.00
11314;BME280;5712;48.858;9.206;2023-03-14T05:52:47;96238.53;;;8.18;100.00
11314;BME280;5712;48.858;9.206;2023-03-14T05:55:15;96236.63;;;8.20;100.00
11314;BME280;5712;48.858;9.206;2023-03-14T05:57:41;96230.09;;;8.43;100.00
11314;BME280;5712;48.858;9.206;2023-03-14T06:00:09;96235.25;;;8.54;100.00
11314;BME280;5712;48.858;9.206;2023-03-14T06:02:36;96226.78;;;8.60;100.00
11314;BME280;5712;48.858;9.206;2023-03-14T06:05:03;96224.44;;;8.66;100.00
11314;BME280;5712;48.858;9.206;2023-03-14T06:07:29;96212.50;;;8.72;100.00
11314;BME280;5712;48.858;9.206;2023-03-14T06:09:56;96217.06;;;8.70;100.00
11314;BME280;5712;48.858;9.206;2023-03-14T06:12:25;96225.53;;;8.64;100.00
11314;BME280;5712;48.858;9.206;2023-03-14T06:14:51;96218.88;;;8.60;100.00
11314;BME280;5712;48.858;9.206;2023-03-14T06:17:18;96211.97;;;8.59;100.00
11314;BME280;5712;48.858;9.206;2023-03-14T06:19:44;96217.22;;;8.59;100.00
11314;BME280;5712;48.858;9.206;2023-03-14T06:22:11;96210.56;;;8.55;100.00
11314;BME280;5712;48.858;9.206;2023-03-14T06:24:37;96200.03;;;8.55;100.00
11314;BME280;5712;48.858;9.206;2023-03-14T06:27:03;96183.97;;;8.58;100.00
11314;BME280;5712;48.858;9.206;2023-03-14T06:29:31;96182.03;;;8.60;100.00
11314;BME280;5712;48.858;9.206;2023-03-14T06:31:58;96180.47;;;8.67;100.00
11314;BME280;5712;48.858;9.206;2023-03-14T06:34:25;96189.09;;;8.69;100.00
11314;BME280;5712;48.858;9.206;2023-03-14T06:36:51;96191.00;;;8.67;100.00
11314;BME280;5712;48.858;9.206;2023-03-14T06:39:17;96182.03;;;8.60;100.00
11314;BME280;5712;48.858;9.206;2023-03-14T06:41:45;96188.53;;;8.65;100.00
11314;BME280;5712;48.858;9.206;2023-03-14T06:44:11;96182.31;;;8.66;100.00
11314;BME280;5712;48.858;9.206;2023-03-14T06:46:39;96174.66;;;8.73;100.00
11314;BME280;5712;48.858;9.206;2023-03-14T06:49:05;96181.72;;;8.82;100.00
11314;BME280;5712;48.858;9.206;2023-03-14T06:51:32;96176.00;;;8.86;100.00
11314;BME280;5712;48.858;9.206;2023-03-14T06:53:59;96180.28;;;8.87;100.00
11314;BME280;5712;48.858;9.206;2023-03-14T06:56:25;96188.63;;;8.83;100.00
11314;BME280;5712;48.858;9.206;2023-03-14T06:58:52;96197.22;;;8.85;100.00
11314;BME280;5712;48.858;9.206;2023-03-14T07:01:22;96200.69;;;8.85;100.00
11314;BME280;5712;48.858;9.206;2023-03-14T07:03:51;96191.09;;;8.94;100.00
11314;BME280;5712;48.858;9.206;2023-03-14T07:06:17;96201.66;;;8.94;100.00
11314;BME280;5712;48.858;9.206;2023-03-14T07:08:44;96187.19;;;8.98;100.00
11314;BME280;5712;48.858;9.206;2023-03-14T07:11:11;96189.09;;;9.15;100.00
11314;BME280;5712;48.858;9.206;2023-03-14T07:13:37;96195.25;;;9.33;100.00
11314;BME280;5712;48.858;9.206;2023-03-14T07:16:05;96207.94;;;9.47;100.00
11314;BME280;5712;48.858;9.206;2023-03-14T07:18:32;96203.47;;;9.57;100.00
11314;BME280;5712;48.858;9.206;2023-03-14T07:21:00;96213.53;;;9.71;100.00
11314;BME280;5712;48.858;9.206;2023-03-14T07:23:26;96221.56;;;9.79;100.00
11314;BME280;5712;48.858;9.206;2023-03-14T07:25:53;96214.78;;;9.94;100.00
11314;BME280;5712;48.858;9.206;2023-03-14T07:28:20;96211.13;;;10.04;100.00
11314;BME280;5712;48.858;9.206;2023-03-14T07:30:48;96203.75;;;10.08;100.00
11314;BME280;5712;48.858;9.206;2023-03-14T07:33:15;96205.72;;;10.06;99.24
11314;BME280;5712;48.858;9.206;2023-03-14T07:35:41;96200.81;;;10.11;97.88
11314;BME280;5712;48.858;9.206;2023-03-14T07:38:09;96207.16;;;10.18;98.03
11314;BME280;5712;48.858;9.206;2023-03-14T07:40:35;96214.84;;;10.29;98.88
11314;BME280;5712;48.858;9.206;2023-03-14T07:43:02;96209.13;;;10.51;98.71
11314;BME280;5712;48.858;9.206;2023-03-14T07:45:28;96203.59;;;10.62;96.81
11314;BME280;5712;48.858;9.206;2023-03-14T07:47:55;96197.44;;;10.79;93.90
11314;BME280;5712;48.858;9.206;2023-03-14T07:50:22;96197.06;;;10.91;93.95
11314;BME280;5712;48.858;9.206;2023-03-14T07:52:49;96196.97;;;11.01;93.51
11314;BME280;5712;48.858;9.206;2023-03-14T07:55:17;96189.06;;;11.09;91.05
11314;BME280;5712;48.858;9.206;2023-03-14T07:57:43;96189.06;;;11.09;91.71
11314;BME280;5712;48.858;9.206;2023-03-14T08:00:11;96195.88;;;11.11;92.24
11314;BME280;5712;48.858;9.206;2023-03-14T08:02:39;96181.81;;;11.11;89.70
11314;BME280;5712;48.858;9.206;2023-03-14T08:05:06;96188.97;;;11.18;90.88
11314;BME280;5712;48.858;9.206;2023-03-14T08:07:33;96185.22;;;11.29;89.91
11314;BME280;5712;48.858;9.206;2023-03-14T08:09:59;96176.84;;;11.41;87.05
11314;BME280;5712;48.858;9.206;2023-03-14T08:12:27;96178.66;;;11.41;87.36
11314;BME280;5712;48.858;9.206;2023-03-14T08:14:54;96186.16;;;11.53;88.34
11314;BME280;5712;48.858;9.206;2023-03-14T08:17:20;96187.38;;;11.59;86.64
11314;BME280;5712;48.858;9.206;2023-03-14T08:19:47;96188.09;;;11.69;87.99
11314;BME280;5712;48.858;9.206;2023-03-14T08:22:13;96179.88;;;11.88;87.14
11314;BME280;5712;48.858;9.206;2023-03-14T08:24:40;96159.22;;;11.99;82.18
11314;BME280;5712;48.858;9.206;2023-03-14T08:27:07;96176.31;;;12.21;84.85
11314;BME280;5712;48.858;9.206;2023-03-14T08:29:35;96166.41;;;12.39;83.28
11314;BME280;5712;48.858;9.206;2023-03-14T08:32:01;96131.31;;;12.37;80.17
11314;BME280;5712;48.858;9.206;2023-03-14T08:34:28;96151.00;;;12.26;81.71
11314;BME280;5712;48.858;9.206;2023-03-14T08:36:54;96154.13;;;12.14;82.24
11314;BME280;5712;48.858;9.206;2023-03-14T08:39:22;96156.75;;;11.98;81.40
11314;BME280;5712;48.858;9.206;2023-03-14T08:41:49;96134.88;;;11.88;78.37
11314;BME280;5712;48.858;9.206;2023-03-14T08:44:15;96150.44;;;11.91;79.17
11314;BME280;5712;48.858;9.206;2023-03-14T08:46:43;96146.97;;;11.98;78.56
11314;BME280;5712;48.858;9.206;2023-03-14T08:49:10;96131.59;;;11.94;76.71
11314;BME280;5712;48.858;9.206;2023-03-14T08:51:36;96146.47;;;11.95;77.73
11314;BME280;5712;48.858;9.206;2023-03-14T08:54:03;96149.97;;;12.03;77.80
11314;BME280;5712;48.858;9.206;2023-03-14T08:56:29;96153.78;;;12.09;76.34
11314;BME280;5712;48.858;9.206;2023-03-14T08:58:56;96152.84;;;12.34;75.10
11314;BME280;5712;48.858;9.206;2023-03-14T09:01:23;96164.75;;;12.70;75.65
11314;BME280;5712;48.858;9.206;2023-03-14T09:03:52;96161.91;;;13.03;73.78
11314;BME280;5712;48.858;9.206;2023-03-14T09:06:19;96156.47;;;12.97;69.90
11314;BME280;5712;48.858;9.206;2023-03-14T09:08:45;96162.75;;;12.88;71.97
11314;BME280;5712;48.858;9.206;2023-03-14T09:11:13;96176.03;;;12.96;74.15
11314;BME280;5712;48.858;9.206;2023-03-14T09:13:40;96171.56;;;13.04;73.29
11314;BME280;5712;48.858;9.206;2023-03-14T09:16:07;96166.56;;;12.93;72.83
11314;BME280;5712;48.858;9.206;2023-03-14T09:18:34;96199.56;;;13.07;74.25
11314;BME280;5712;48.858;9.206;2023-03-14T09:21:03;96206.16;;;12.79;74.33
11314;BME280;5712;48.858;9.206;2023-03-14T09:23:30;96220.41;;;12.70;76.58
11314;BME280;5712;48.858;9.206;2023-03-14T09:25:57;96232.34;;;12.74;78.44
11314;BME280;5712;48.858;9.206;2023-03-14T09:28:24;96233.00;;;12.84;78.32
11314;BME280;5712;48.858;9.206;2023-03-14T09:30:51;96227.38;;;12.87;76.94
11314;BME280;5712;48.858;9.206;2023-03-14T09:33:18;96224.25;;;12.99;77.05
11314;BME280;5712;48.858;9.206;2023-03-14T09:35:44;96226.69;;;12.93;76.00
11314;BME280;5712;48.858;9.206;2023-03-14T09:38:12;96223.75;;;12.96;76.85
11314;BME280;5712;48.858;9.206;2023-03-14T09:40:39;96232.38;;;12.98;75.85
11314;BME280;5712;48.858;9.206;2023-03-14T09:43:05;96240.66;;;12.95;76.84
11314;BME280;5712;48.858;9.206;2023-03-14T09:45:34;96241.59;;;12.94;76.51
11314;BME280;5712;48.858;9.206;2023-03-14T09:48:03;96260.88;;;13.12;78.01
11314;BME280;5712;48.858;9.206;2023-03-14T09:50:33;96243.78;;;13.14;76.19
11314;BME280;5712;48.858;9.206;2023-03-14T09:53:06;96237.16;;;12.94;75.23
11314;BME280;5712;48.858;9.206;2023-03-14T09:55:34;96246.59;;;12.81;75.59
11314;BME280;5712;48.858;9.206;2023-03-14T09:58:04;96261.84;;;12.71;77.85
11314;BME280;5712;48.858;9.206;2023-03-14T10:00:36;96258.19;;;12.88;75.84
11314;BME280;5712;48.858;9.206;2023-03-14T10:03:19;96240.13;;;12.83;73.82
11314;BME280;5712;48.858;9.206;2023-03-14T10:05:47;96249.94;;;12.99;77.14
11314;BME280;5712;48.858;9.206;2023-03-14T10:08:14;96227.38;;;13.11;74.19
11314;BME280;5712;48.858;9.206;2023-03-14T10:10:42;96232.06;;;13.01;75.30
11314;BME280;5712;48.858;9.206;2023-03-14T10:13:15;96225.69;;;12.94;75.36
11314;BME280;5712;48.858;9.206;2023-03-14T10:15:42;96198.56;;;12.84;73.61
11314;BME280;5712;48.858;9.206;2023-03-14T10:18:13;96208.50;;;12.90;76.16
11314;BME280;5712;48.858;9.206;2023-03-14T10:20:42;96202.84;;;12.93;74.83
11314;BME280;5712;48.858;9.206;2023-03-14T10:23:22;96210.84;;;13.01;76.75
11314;BME280;5712;48.858;9.206;2023-03-14T10:26:04;96218.09;;;13.15;76.55
11314;BME280;5712;48.858;9.206;2023-03-14T10:28:33;96195.88;;;13.24;73.56
11314;BME280;5712;48.858;9.206;2023-03-14T10:31:00;96211.72;;;13.48;75.73
11314;BME280;5712;48.858;9.206;2023-03-14T10:33:29;96179.53;;;13.59;71.43
11314;BME280;5712;48.858;9.206;2023-03-14T10:35:57;96186.34;;;13.53;71.59
11314;BME280;5712;48.858;9.206;2023-03-14T10:38:26;96179.19;;;13.62;70.85
11314;BME280;5712;48.858;9.206;2023-03-14T10:40:55;96191.47;;;13.63;69.63
11314;BME280;5712;48.858;9.206;2023-03-14T10:43:25;96176.69;;;13.60;68.78
11314;BME280;5712;48.858;9.206;2023-03-14T10:45:55;96197.66;;;13.47;68.65
11314;BME280;5712;48.858;9.206;2023-03-14T10:48:30;96218.03;;;13.47;73.27
11314;BME280;5712;48.858;9.206;2023-03-14T10:50:59;96206.94;;;13.43;70.13
11314;BME280;5712;48.858;9.206;2023-03-14T10:53:33;96199.97;;;13.42;68.87
11314;BME280;5712;48.858;9.206;2023-03-14T10:56:03;96201.81;;;13.34;69.96
11314;BME280;5712;48.858;9.206;2023-03-14T10:58:35;96207.34;;;13.08;69.59
11314;BME280;5712;48.858;9.206;2023-03-14T11:01:13;96215.47;;;13.07;69.88
11314;BME280;5712;48.858;9.206;2023-03-14T11:03:49;96225.41;;;12.97;70.62
11314;BME280;5712;48.858;9.206;2023-03-14T11:06:24;96228.06;;;12.89;71.57
11314;BME280;5712;48.858;9.206;2023-03-14T11:08:57;96260.03;;;12.95;75.12
11314;BME280;5712;48.858;9.206;2023-03-14T11:11:31;96253.06;;;12.94;73.93
11314;BME280;5712;48.858;9.206;2023-03-14T11:14:08;96278.38;;;12.81;78.41
11314;BME280;5712;48.858;9.206;2023-03-14T11:16:50;96287.00;;;12.67;81.37
11314;BME280;5712;48.858;9.206;2023-03-14T11:19:42;96291.94;;;12.46;82.20
11314;BME280;5712;48.858;9.206;2023-03-14T11:22:20;96300.88;;;12.53;83.02
11314;BME280;5712;48.858;9.206;2023-03-14T11:27:42;96298.16;;;12.29;84.90
11314;BME280;5712;48.858;9.206;2023-03-14T11:30:18;96323.44;;;12.15;89.24
11314;BME280;5712;48.858;9.206;2023-03-14T11:32:46;96317.53;;;11.96;90.71
11314;BME280;5712;48.858;9.206;2023-03-14T11:35:22;96317.53;;;11.88;90.85
11314;BME280;5712;48.858;9.206;2023-03-14T11:37:53;96330.59;;;11.89;95.56
11314;BME280;5712;48.858;9.206;2023-03-14T11:40:22;96321.16;;;11.87;96.34
11314;BME280;5712;48.858;9.206;2023-03-14T11:42:56;96302.84;;;11.68;93.20
11314;BME280;5712;48.858;9.206;2023-03-14T11:45:30;96310.09;;;11.66;92.71
11314;BME280;5712;48.858;9.206;2023-03-14T11:48:11;96319.75;;;11.75;91.95
11314;BME280;5712;48.858;9.206;2023-03-14T11:50:42;96324.09;;;11.84;92.95
11314;BME280;5712;48.858;9.206;2023-03-14T11:53:14;96313.88;;;11.89;88.45
11314;BME280;5712;48.858;9.206;2023-03-14T11:55:43;96324.31;;;11.90;90.74
11314;BME280;5712;48.858;9.206;2023-03-14T11:58:14;96323.28;;;11.83;91.57
11314;BME280;5712;48.858;9.206;2023-03-14T12:00:44;96343.84;;;11.64;93.45
11314;BME280;5712;48.858;9.206;2023-03-14T12:03:17;96345.66;;;11.46;92.31
11314;BME280;5712;48.858;9.206;2023-03-14T12:05:53;96358.56;;;11.23;93.23
11314;BME280;5712;48.858;9.206;2023-03-14T12:08:38;96365.66;;;11.05;97.47
11314;BME280;5712;48.858;9.206;2023-03-14T12:11:11;96395.94;;;10.93;98.43
11314;BME280;5712;48.858;9.206;2023-03-14T12:13:39;96387.56;;;10.98;97.86
11314;BME280;5712;48.858;9.206;2023-03-14T12:16:30;96391.34;;;11.13;100.00
11314;BME280;5712;48.858;9.206;2023-03-14T12:19:13;96398.22;;;11.23;99.46
11314;BME280;5712;48.858;9.206;2023-03-14T12:21:47;96396.47;;;11.32;100.00
11314;BME280;5712;48.858;9.206;2023-03-14T12:24:18;96408.09;;;11.39;100.00
11314;BME280;5712;48.858;9.206;2023-03-14T12:26:53;96412.03;;;11.35;100.00
11314;BME280;5712;48.858;9.206;2023-03-14T12:29:20;96415.28;;;11.29;100.00
11314;BME280;5712;48.858;9.206;2023-03-14T12:31:48;96428.50;;;11.29;100.00
11314;BME280;5712;48.858;9.206;2023-03-14T12:34:27;96437.66;;;11.34;100.00
11314;BME280;5712;48.858;9.206;2023-03-14T12:36:59;96448.91;;;11.19;96.22
11314;BME280;5712;48.858;9.206;2023-03-14T12:39:36;96435.44;;;10.95;91.94
11314;BME280;5712;48.858;9.206;2023-03-14T12:42:05;96436.53;;;10.75;86.67
11314;BME280;5712;48.858;9.206;2023-03-14T12:44:45;96478.31;;;10.62;84.96
11314;BME280;5712;48.858;9.206;2023-03-14T12:47:51;96468.19;;;10.57;82.11
11314;BME280;5712;48.858;9.206;2023-03-14T12:50:24;96454.94;;;10.67;80.83
11314;BME280;5712;48.858;9.206;2023-03-14T12:53:13;96458.75;;;10.55;75.00
11314;BME280;5712;48.858;9.206;2023-03-14T12:55:45;96479.91;;;10.82;75.33
11314;BME280;5712;48.858;9.206;2023-03-14T12:58:17;96478.53;;;10.95;72.75
11314;BME280;5712;48.858;9.206;2023-03-14T13:00:54;96464.13;;;10.90;70.08
11314;BME280;5712;48.858;9.206;2023-03-14T13:03:24;96487.47;;;10.94;70.95
11314;BME280;5712;48.858;9.206;2023-03-14T13:05:54;96478.00;;;10.92;65.08
11314;BME280;5712;48.858;9.206;2023-03-14T13:08:36;96468.28;;;10.92;62.39
11314;BME280;5712;48.858;9.206;2023-03-14T13:11:05;96472.72;;;10.92;62.52
11314;BME280;5712;48.858;9.206;2023-03-14T13:13:34;96482.03;;;10.96;61.89
11314;BME280;5712;48.858;9.206;2023-03-14T13:16:02;96509.13;;;10.98;62.28
11314;BME280;5712;48.858;9.206;2023-03-14T13:18:34;96529.47;;;10.97;61.53
11314;BME280;5712;48.858;9.206;2023-03-14T13:21:03;96522.19;;;10.82;61.52